Impacts METAR Board
IDs:

KMDW - Chicago/Midway Intl, IL, US

Updated at: 0300 UTC 17 Jul 2018
Potential Impact None Slight Moderate High
Time 16/15Z 16/16Z 16/17Z 16/18Z 16/19Z 16/20Z 16/21Z 16/22Z 16/23Z 17/00Z 17/01Z 17/02Z 17/03Z
Temp87 87 89 92 91 77 84 85 85 85 82 80 78
Dewpt73 73 69 68 69 73 73 71 69 71 72 73 72
Altim29.93 29.93 29.92 29.91 29.91 29.92 29.90 29.90 29.90 29.91 29.92 29.94 29.97
VIS10 10 10 10 10 9 10 10 10 10 10 10 10
CIG120 70 250 250 110 48 150 250 -- -- -- -- --
CoverBKNBKNBKNBKNBKNBKNBKNBKNSCTSCTSCTFEWCLR
FltCatVFRVFRVFRVFRVFRVFRVFRVFRVFRVFRVFRVFRVFR
WX-----------TSRA--------------
WDir290320320360400008050604030
WSpd6 7 8 7 8 3 0 5 5 6 7 4 7
WGst-- -- -- -- -- -- -- -- -- -- -- -- --
Raw hourly METARs
KMDW 161453Z 29006KT 10SM FEW028 BKN120 BKN250 31/23 A2993 RMK AO2 SLP122 T03060228 53000 $
KMDW 161553Z 32007KT 10SM SCT032 BKN070 BKN110 BKN250 31/23 A2993 RMK AO2 LTG DSNT SE SLP123 CB DSNT E-SE T03060228 $
KMDW 161653Z 32008KT 10SM FEW042 FEW070 SCT110 BKN250 32/21 A2992 RMK AO2 SLP118 T03170206 $
KMDW 161753Z 36007KT 310V020 10SM FEW050 FEW070 SCT110 BKN250 33/20 A2991 RMK AO2 LTG DSNT NE AND SE SLP115 CB DSNT NE T03330200 10333 20267 58008 $
KMDW 161853Z 04008KT 10SM SCT050CB SCT070 BKN110 BKN250 33/21 A2991 RMK AO2 WSHFT 1810 LTG DSNT SE SLP113 CB N MOV SE T03280206 $
KMDW 161953Z VRB03KT 9SM -TSRA FEW030 BKN048CB BKN090 BKN150 25/23 A2992 RMK AO2 PK WND 35029/1906 RAB15 TSB20 SLP120 OCNL LTGICCG VC S TS VC S MOV S P0016 T02500228 $
KMDW 162053Z 00000KT 10SM FEW036 SCT048 SCT085 BKN150 BKN250 29/23 A2990 RMK AO2 LTG DSNT SE AND S RAE14 TSE20 SLP114 CB DSNT S-W TCU DSNT ALQDS P0001 60017 T02890228 58003 $
KMDW 162153Z VRB05KT 10SM FEW048 SCT085 SCT150 BKN250 29/22 A2990 RMK AO2 SLP113 CB DSNT SW T02940217 $
KMDW 162253Z 08005KT 10SM FEW045TCU FEW090 SCT150 SCT250 29/21 A2990 RMK AO2 SLP114 TCU SW T02940206 $
KMDW 162353Z 05006KT 10SM FEW042 FEW090 SCT150 SCT250 29/22 A2991 RMK AO2 SLP114 60017 T02940217 10339 20239 53001 $
KMDW 170053Z 06007KT 10SM SCT037 SCT150 28/22 A2992 RMK AO2 SLP119 T02780222 $
KMDW 170153Z 04004KT 10SM FEW037 FEW150 27/23 A2994 RMK AO2 SLP127 T02670228 $
KMDW 170253Z 03007KT 10SM CLR 26/22 A2997 RMK AO2 SLP137 T02560222 53023 $



Page loaded:  03:29 UTC  |   08:29 PM Pacific  |   09:29 PM Mountain  |   10:29 PM Central  |   11:29 PM Eastern

 

ADVISORIES

FORECASTS

FORECASTS

OBSERVATIONS

USER TOOLS

ABOUT US